createdAt,value
2022-11-02T00:00:31.672Z,2.70
2022-11-02T00:01:31.731Z,3.50
2022-11-02T00:02:31.744Z,3.00
2022-11-02T00:03:31.644Z,3.00
2022-11-02T00:04:31.634Z,2.80
2022-11-02T00:05:31.641Z,3.10
2022-11-02T00:06:31.616Z,3.40
2022-11-02T00:07:31.603Z,3.50
2022-11-02T00:08:31.606Z,3.20
2022-11-02T00:09:31.596Z,2.80
2022-11-02T00:10:31.618Z,3.00
2022-11-02T00:11:31.577Z,2.60
2022-11-02T00:12:31.576Z,2.80
2022-11-02T00:13:31.564Z,3.60
2022-11-02T00:14:31.561Z,2.80
2022-11-02T00:15:31.577Z,3.10
2022-11-02T00:16:31.543Z,2.50
2022-11-02T00:17:31.557Z,2.80
2022-11-02T00:18:31.541Z,2.80
2022-11-02T00:19:31.527Z,2.90
2022-11-02T00:20:31.545Z,2.90
2022-11-02T00:21:31.507Z,3.20
2022-11-02T00:22:31.496Z,2.50
2022-11-02T00:23:31.490Z,2.50
2022-11-02T00:24:31.480Z,2.30
2022-11-02T00:25:31.496Z,3.10
2022-11-02T00:26:31.459Z,3.20
2022-11-02T00:27:31.454Z,1.80
2022-11-02T00:28:31.449Z,1.70
2022-11-02T00:29:33.997Z,2.30
2022-11-02T00:30:32.458Z,2.20
2022-11-02T00:31:31.415Z,2.20
2022-11-02T00:32:31.419Z,2.10
2022-11-02T00:33:31.410Z,2.60
2022-11-02T00:34:31.396Z,2.10
2022-11-02T00:35:31.420Z,3.00
2022-11-02T00:36:31.392Z,2.50
2022-11-02T00:38:31.366Z,1.80
2022-11-02T00:39:31.362Z,2.20
2022-11-02T00:40:31.383Z,2.20
2022-11-02T00:41:31.344Z,1.90
2022-11-02T00:42:31.335Z,1.60
2022-11-02T00:43:31.332Z,2.10
2022-11-02T00:44:31.316Z,2.40
2022-11-02T00:45:31.348Z,2.10
2022-11-02T00:46:31.304Z,2.90
2022-11-02T00:47:32.299Z,2.50
2022-11-02T00:48:31.285Z,1.90
2022-11-02T00:49:31.280Z,2.10
2022-11-02T00:50:31.269Z,1.90
2022-11-02T00:51:31.288Z,2.10
2022-11-02T00:52:31.253Z,1.80
2022-11-02T00:53:31.249Z,1.80
2022-11-02T00:54:31.239Z,2.20
2022-11-02T00:55:31.235Z,1.70
2022-11-02T00:56:31.249Z,1.70
2022-11-02T00:57:31.214Z,2.50
2022-11-02T00:58:31.210Z,1.60
2022-11-02T00:59:31.198Z,2.00
2022-11-02T01:00:31.195Z,2.00
2022-11-02T01:01:31.405Z,1.80
2022-11-02T01:02:31.279Z,2.00
2022-11-02T01:03:31.163Z,1.50
2022-11-02T01:04:31.159Z,2.00
2022-11-02T01:05:31.153Z,1.80
2022-11-02T01:06:31.175Z,2.50
2022-11-02T01:07:31.134Z,2.10
2022-11-02T01:08:31.134Z,2.40
2022-11-02T01:09:31.124Z,2.10
2022-11-02T01:10:31.116Z,1.90
2022-11-02T01:11:31.133Z,1.90
2022-11-02T01:12:31.098Z,1.90
2022-11-02T01:13:31.091Z,2.20
2022-11-02T01:14:31.080Z,3.00
2022-11-02T01:15:31.083Z,1.80
2022-11-02T01:16:31.091Z,2.00
2022-11-02T01:17:31.055Z,2.20
2022-11-02T01:18:31.044Z,1.80
2022-11-02T01:19:31.041Z,3.80
2022-11-02T01:20:31.033Z,2.10
2022-11-02T01:21:31.053Z,2.00
2022-11-02T01:22:31.018Z,2.70
2022-11-02T01:23:31.014Z,1.70
2022-11-02T01:24:31.005Z,2.30
2022-11-02T01:25:30.994Z,1.70
2022-11-02T01:26:31.021Z,2.30
2022-11-02T01:27:30.983Z,2.00
2022-11-02T01:28:30.983Z,3.20
2022-11-02T01:29:30.974Z,2.00
2022-11-02T01:30:30.997Z,3.10
2022-11-02T01:31:30.951Z,1.90
2022-11-02T01:32:30.952Z,2.50
2022-11-02T01:33:30.938Z,2.60
2022-11-02T01:34:30.926Z,2.70
2022-11-02T01:35:30.953Z,2.10
2022-11-02T01:36:30.909Z,2.40
2022-11-02T01:37:30.904Z,2.30
2022-11-02T01:38:30.888Z,2.50
2022-11-02T01:39:30.896Z,2.70
2022-11-02T01:40:30.877Z,3.00
2022-11-02T01:41:30.892Z,2.70
2022-11-02T01:42:30.869Z,2.90
2022-11-02T01:43:30.847Z,2.90
2022-11-02T01:44:30.844Z,2.70
2022-11-02T01:45:30.843Z,2.80
2022-11-02T01:46:30.859Z,2.80
2022-11-02T01:47:30.821Z,2.60
2022-11-02T01:48:30.825Z,2.80
2022-11-02T01:49:30.807Z,2.60
2022-11-02T01:50:30.815Z,2.80
2022-11-02T01:51:30.829Z,2.70
2022-11-02T01:52:30.791Z,2.80
2022-11-02T01:53:30.790Z,2.50
2022-11-02T01:54:30.778Z,3.00
2022-11-02T01:55:30.769Z,3.10
2022-11-02T01:56:30.784Z,2.20
2022-11-02T01:57:30.752Z,2.30
2022-11-02T01:58:30.738Z,2.90
2022-11-02T01:59:30.729Z,3.10
2022-11-02T02:00:30.756Z,2.70
2022-11-02T02:01:30.842Z,2.40
2022-11-02T02:02:30.866Z,2.60
2022-11-02T02:03:30.702Z,2.60
2022-11-02T02:04:30.691Z,2.80
2022-11-02T02:05:30.712Z,2.70
2022-11-02T02:06:30.677Z,2.70
2022-11-02T02:07:30.677Z,2.20
2022-11-02T02:08:30.664Z,2.60
2022-11-02T02:09:30.658Z,2.60
2022-11-02T02:10:30.672Z,2.20
2022-11-02T02:11:30.645Z,2.00
2022-11-02T02:12:30.637Z,2.20
2022-11-02T02:13:30.625Z,2.70
2022-11-02T02:14:30.615Z,3.80
2022-11-02T02:15:30.643Z,1.90
2022-11-02T02:16:33.653Z,2.30
2022-11-02T02:17:31.643Z,2.20
2022-11-02T02:18:30.587Z,1.80
2022-11-02T02:19:30.577Z,2.10
2022-11-02T02:20:30.602Z,2.30
2022-11-02T02:21:30.567Z,2.90
2022-11-02T02:22:30.558Z,2.10
2022-11-02T02:23:30.551Z,2.30
2022-11-02T02:24:30.544Z,2.70
2022-11-02T02:25:30.563Z,2.40
2022-11-02T02:26:30.534Z,2.90
2022-11-02T02:27:30.524Z,2.50
2022-11-02T02:28:30.515Z,2.20
2022-11-02T02:29:30.505Z,2.20
2022-11-02T02:30:30.500Z,2.30
2022-11-02T02:31:30.517Z,2.40
2022-11-02T02:32:30.478Z,2.60
2022-11-02T02:33:30.468Z,2.60
2022-11-02T02:34:30.469Z,3.00
2022-11-02T02:35:30.460Z,2.40
2022-11-02T02:36:30.476Z,2.30
2022-11-02T02:37:30.448Z,3.10
2022-11-02T02:38:30.437Z,2.80
2022-11-02T02:39:30.429Z,2.70
2022-11-02T02:40:30.442Z,2.20
2022-11-02T02:41:30.416Z,2.50
2022-11-02T02:42:30.410Z,2.60
2022-11-02T02:43:30.402Z,2.30
2022-11-02T02:44:30.393Z,2.60
2022-11-02T02:45:30.408Z,2.70
2022-11-02T02:46:32.419Z,2.70
2022-11-02T02:47:30.367Z,2.40
2022-11-02T02:48:30.356Z,3.50
2022-11-02T02:49:30.353Z,2.90
2022-11-02T02:50:30.377Z,2.20
2022-11-02T02:51:30.339Z,2.60
2022-11-02T02:52:30.321Z,2.60
2022-11-02T02:53:30.319Z,2.20
2022-11-02T02:54:30.317Z,2.60
2022-11-02T02:55:30.350Z,2.00
2022-11-02T02:56:30.324Z,3.00
2022-11-02T02:57:30.294Z,2.20
2022-11-02T02:58:30.287Z,2.10
2022-11-02T02:59:30.276Z,2.30
2022-11-02T03:00:30.275Z,1.80
2022-11-02T03:01:30.364Z,2.50
2022-11-02T03:02:30.365Z,1.80
2022-11-02T03:03:30.243Z,1.90
2022-11-02T03:04:30.238Z,2.20
2022-11-02T03:05:30.232Z,2.40
2022-11-02T03:06:30.250Z,2.10
2022-11-02T03:07:33.727Z,2.00
2022-11-02T03:08:30.216Z,2.10
2022-11-02T03:09:30.195Z,2.00
2022-11-02T03:10:30.194Z,1.90
2022-11-02T03:11:30.212Z,2.20
2022-11-02T03:12:30.181Z,2.00
2022-11-02T03:13:30.171Z,2.40
2022-11-02T03:14:30.218Z,2.10
2022-11-02T03:15:30.164Z,2.20
2022-11-02T03:16:30.176Z,1.90
2022-11-02T03:17:30.222Z,2.10
2022-11-02T03:18:30.139Z,2.20
2022-11-02T03:19:30.124Z,2.10
2022-11-02T03:20:30.121Z,2.30
2022-11-02T03:21:30.138Z,2.40
2022-11-02T03:22:30.104Z,2.60
2022-11-02T03:23:30.098Z,2.00
2022-11-02T03:24:30.095Z,2.30
2022-11-02T03:25:30.081Z,2.40
2022-11-02T03:26:30.102Z,1.90
2022-11-02T03:27:30.062Z,2.20
2022-11-02T03:28:30.059Z,1.80
2022-11-02T03:29:30.053Z,2.30
2022-11-02T03:30:30.045Z,2.60
2022-11-02T03:31:30.058Z,1.90
2022-11-02T03:32:30.032Z,2.30
2022-11-02T03:33:30.016Z,2.00
2022-11-02T03:34:30.009Z,2.20
2022-11-02T03:35:29.999Z,2.50
2022-11-02T03:36:30.033Z,2.20
2022-11-02T03:37:29.984Z,2.20
2022-11-02T03:38:29.983Z,2.00
2022-11-02T03:39:29.972Z,2.70
2022-11-02T03:40:29.972Z,2.20
2022-11-02T03:41:29.989Z,2.40
2022-11-02T03:42:29.946Z,2.90
2022-11-02T03:43:29.942Z,3.10
2022-11-02T03:44:29.933Z,2.60
2022-11-02T03:45:29.928Z,3.00
2022-11-02T03:46:29.941Z,2.20
2022-11-02T03:47:29.910Z,2.30
2022-11-02T03:48:29.905Z,2.40
2022-11-02T03:49:29.884Z,2.90
2022-11-02T03:50:29.889Z,2.80
2022-11-02T03:51:29.899Z,2.20
2022-11-02T03:52:29.878Z,2.20
2022-11-02T03:53:29.862Z,2.10
2022-11-02T03:54:29.856Z,2.00
2022-11-02T03:55:29.846Z,2.00
2022-11-02T03:56:29.858Z,2.20
2022-11-02T03:57:29.834Z,2.60
2022-11-02T03:58:29.826Z,2.40
2022-11-02T03:59:29.817Z,2.30
2022-11-02T04:00:29.811Z,2.50
2022-11-02T04:01:29.908Z,2.50
2022-11-02T04:02:29.961Z,2.40
2022-11-02T04:03:29.787Z,2.40
2022-11-02T04:04:29.773Z,2.30
2022-11-02T04:05:29.768Z,2.70
2022-11-02T04:06:29.788Z,2.20
2022-11-02T04:07:29.753Z,2.80
2022-11-02T04:08:29.740Z,2.60
2022-11-02T04:09:29.742Z,2.30
2022-11-02T04:10:29.734Z,3.20
2022-11-02T04:11:29.770Z,2.50
2022-11-02T04:12:29.714Z,2.60
2022-11-02T04:13:29.703Z,2.30
2022-11-02T04:14:29.698Z,2.50
2022-11-02T04:15:29.685Z,2.70
2022-11-02T04:16:29.724Z,2.60
2022-11-02T04:18:29.672Z,2.90
2022-11-02T04:19:29.660Z,3.30
2022-11-02T04:20:29.660Z,2.60
2022-11-02T04:21:29.677Z,2.50
2022-11-02T04:22:29.639Z,2.50
2022-11-02T04:23:29.637Z,2.40
2022-11-02T04:24:29.626Z,2.40
2022-11-02T04:25:29.616Z,2.20
2022-11-02T04:26:29.612Z,2.90
2022-11-02T04:27:29.622Z,2.20
2022-11-02T04:28:29.594Z,2.40
2022-11-02T04:29:29.591Z,2.50
2022-11-02T04:30:29.579Z,2.00
2022-11-02T04:31:29.576Z,2.20
2022-11-02T04:32:29.587Z,2.20
2022-11-02T04:33:29.555Z,2.70
2022-11-02T04:34:29.548Z,2.50
2022-11-02T04:35:29.544Z,2.20
2022-11-02T04:36:29.529Z,2.60
2022-11-02T04:38:29.519Z,2.60
2022-11-02T04:39:29.506Z,2.00
2022-11-02T04:40:29.506Z,2.40
2022-11-02T04:41:29.494Z,2.80
2022-11-02T04:42:29.506Z,2.30
2022-11-02T04:43:29.475Z,2.50
2022-11-02T04:44:29.469Z,5.20
2022-11-02T04:45:29.461Z,7.00
2022-11-02T04:46:29.458Z,6.80
2022-11-02T04:47:29.471Z,6.60
2022-11-02T04:48:29.436Z,7.10
2022-11-02T04:49:29.428Z,5.90
2022-11-02T04:50:29.422Z,5.40
2022-11-02T04:51:29.430Z,4.20
2022-11-02T04:52:29.404Z,5.60
2022-11-02T04:53:29.400Z,4.00
2022-11-02T04:54:29.387Z,3.30
2022-11-02T04:55:29.375Z,3.40
2022-11-02T04:56:29.396Z,3.40
2022-11-02T04:57:29.397Z,3.20
2022-11-02T04:58:29.351Z,2.50
2022-11-02T04:59:29.352Z,2.70
2022-11-02T05:00:29.348Z,2.50
2022-11-02T05:01:30.503Z,2.60
2022-11-02T05:02:29.390Z,2.80
2022-11-02T05:03:29.317Z,2.90
2022-11-02T05:04:29.311Z,2.50
2022-11-02T05:05:29.298Z,3.00
2022-11-02T05:06:29.310Z,2.40
2022-11-02T05:07:29.286Z,2.40
2022-11-02T05:08:29.274Z,2.80
2022-11-02T05:09:29.267Z,2.50
2022-11-02T05:10:29.262Z,2.70
2022-11-02T05:11:29.267Z,2.50
2022-11-02T05:12:29.511Z,2.10
2022-11-02T05:13:30.234Z,2.10
2022-11-02T05:14:29.233Z,2.40
2022-11-02T05:15:29.223Z,2.30
2022-11-02T05:16:29.229Z,2.50
2022-11-02T05:17:29.205Z,2.40
2022-11-02T05:18:29.201Z,1.90
2022-11-02T05:19:29.190Z,2.00
2022-11-02T05:20:29.173Z,2.40
2022-11-02T05:21:29.198Z,2.30
2022-11-02T05:22:29.161Z,2.20
2022-11-02T05:23:29.156Z,3.20
2022-11-02T05:24:29.150Z,1.90
2022-11-02T05:25:29.141Z,2.90
2022-11-02T05:26:29.156Z,2.50
2022-11-02T05:27:29.179Z,2.60
2022-11-02T05:28:29.118Z,2.90
2022-11-02T05:29:29.109Z,3.20
2022-11-02T05:30:29.097Z,2.80
2022-11-02T05:31:29.122Z,3.00
2022-11-02T05:32:29.082Z,2.70
2022-11-02T05:33:30.720Z,2.40
2022-11-02T05:34:30.067Z,2.80
2022-11-02T05:35:29.057Z,3.00
2022-11-02T05:36:29.083Z,2.50
2022-11-02T05:37:29.042Z,2.50
2022-11-02T05:38:29.143Z,2.70
2022-11-02T05:39:29.026Z,3.70
2022-11-02T05:40:29.022Z,6.90
2022-11-02T05:41:29.035Z,8.60
2022-11-02T05:42:29.002Z,9.20
2022-11-02T05:43:28.994Z,12.90
2022-11-02T05:44:28.992Z,8.30
2022-11-02T05:45:28.978Z,8.20
2022-11-02T05:46:28.996Z,7.90
2022-11-02T05:47:28.964Z,8.80
2022-11-02T05:48:28.959Z,11.30
2022-11-02T05:49:28.958Z,12.90
2022-11-02T05:50:28.969Z,14.90
2022-11-02T05:51:28.964Z,13.30
2022-11-02T05:52:28.940Z,10.50
2022-11-02T05:53:28.923Z,7.40
2022-11-02T05:54:28.919Z,5.90
2022-11-02T05:55:28.920Z,5.50
2022-11-02T05:56:28.922Z,5.70
2022-11-02T05:57:28.897Z,5.20
2022-11-02T05:58:28.895Z,4.30
2022-11-02T05:59:28.878Z,6.90
2022-11-02T06:00:28.869Z,10.00
2022-11-02T06:01:28.968Z,8.10
2022-11-02T06:02:28.860Z,8.30
2022-11-02T06:03:28.851Z,7.40
2022-11-02T06:04:28.845Z,8.90
2022-11-02T06:05:28.856Z,8.80
2022-11-02T06:06:28.851Z,8.90
2022-11-02T06:07:28.815Z,6.30
2022-11-02T06:08:28.810Z,5.30
2022-11-02T06:09:28.800Z,4.70
2022-11-02T06:10:28.791Z,4.30
2022-11-02T06:11:28.811Z,5.10
2022-11-02T06:12:28.781Z,5.00
2022-11-02T06:13:28.774Z,4.30
2022-11-02T06:14:28.764Z,4.20
2022-11-02T06:15:28.767Z,4.30
2022-11-02T06:16:28.778Z,4.10
2022-11-02T06:17:28.750Z,3.80
2022-11-02T06:18:28.739Z,4.00
2022-11-02T06:19:28.728Z,4.50
2022-11-02T06:20:28.725Z,3.60
2022-11-02T06:21:28.841Z,3.80
2022-11-02T06:22:28.706Z,3.30
2022-11-02T06:23:28.702Z,3.70
2022-11-02T06:24:28.685Z,3.50
2022-11-02T06:25:28.693Z,3.70
2022-11-02T06:26:28.711Z,4.20
2022-11-02T06:27:28.667Z,3.20
2022-11-02T06:28:28.657Z,4.20
2022-11-02T06:29:29.656Z,3.80
2022-11-02T06:30:28.646Z,3.70
2022-11-02T06:31:28.660Z,3.60
2022-11-02T06:32:28.633Z,3.80
2022-11-02T06:33:28.626Z,4.70
2022-11-02T06:34:28.622Z,4.60
2022-11-02T06:35:28.602Z,4.70
2022-11-02T06:36:28.631Z,3.80
2022-11-02T06:37:28.595Z,3.90
2022-11-02T06:38:28.610Z,4.20
2022-11-02T06:39:28.631Z,4.30
2022-11-02T06:40:28.568Z,4.30
2022-11-02T06:41:28.586Z,3.70
2022-11-02T06:42:28.556Z,4.30
2022-11-02T06:43:28.542Z,5.60
2022-11-02T06:44:28.533Z,5.60
2022-11-02T06:45:28.531Z,5.00
2022-11-02T06:46:28.823Z,4.70
2022-11-02T06:47:28.511Z,6.20
2022-11-02T06:48:34.216Z,5.20
2022-11-02T06:49:30.496Z,4.50
2022-11-02T06:50:28.492Z,4.20
2022-11-02T06:51:28.510Z,3.90
2022-11-02T06:52:28.474Z,3.60
2022-11-02T06:53:28.466Z,3.00
2022-11-02T06:54:28.457Z,2.90
2022-11-02T06:55:28.456Z,3.20
2022-11-02T06:56:28.470Z,3.60
2022-11-02T06:57:28.440Z,3.40
2022-11-02T06:58:28.428Z,3.20
2022-11-02T06:59:28.423Z,2.60
2022-11-02T07:00:28.666Z,2.20
2022-11-02T07:01:28.624Z,2.50
2022-11-02T07:02:28.446Z,2.10
2022-11-02T07:03:28.400Z,2.20
2022-11-02T07:04:28.379Z,2.30
2022-11-02T07:05:28.363Z,2.20
2022-11-02T07:06:28.385Z,2.70
2022-11-02T07:07:28.349Z,2.70
2022-11-02T07:08:28.338Z,2.60
2022-11-02T07:09:28.337Z,2.20
2022-11-02T07:10:28.420Z,2.10
2022-11-02T07:11:28.345Z,2.80
2022-11-02T07:12:28.310Z,2.40
2022-11-02T07:13:28.305Z,2.20
2022-11-02T07:14:28.292Z,2.80
2022-11-02T07:15:28.285Z,3.00
2022-11-02T07:16:28.309Z,2.40
2022-11-02T07:17:32.003Z,2.70
2022-11-02T07:18:29.263Z,3.00
2022-11-02T07:19:28.257Z,3.00
2022-11-02T07:20:28.324Z,2.60
2022-11-02T07:21:28.266Z,3.10
2022-11-02T07:22:28.234Z,2.20
2022-11-02T07:23:28.232Z,2.50
2022-11-02T07:24:28.253Z,3.00
2022-11-02T07:25:28.208Z,2.60
2022-11-02T07:26:28.228Z,2.90
2022-11-02T07:27:28.191Z,2.80
2022-11-02T07:28:28.182Z,2.50
2022-11-02T07:29:28.180Z,2.00
2022-11-02T07:30:28.227Z,2.50
2022-11-02T07:31:28.181Z,3.20
2022-11-02T07:32:28.152Z,2.70
2022-11-02T07:33:28.141Z,2.50
2022-11-02T07:34:28.140Z,2.30
2022-11-02T07:35:28.133Z,1.80
2022-11-02T07:36:28.153Z,1.90
2022-11-02T07:37:28.115Z,2.00
2022-11-02T07:38:28.106Z,2.70
2022-11-02T07:39:28.101Z,2.40
2022-11-02T07:40:28.195Z,2.50
2022-11-02T07:41:28.110Z,2.10
2022-11-02T07:42:28.079Z,2.60
2022-11-02T07:43:28.065Z,2.10
2022-11-02T07:44:28.062Z,2.50
2022-11-02T07:45:28.055Z,2.50
2022-11-02T07:46:28.042Z,2.70
2022-11-02T07:47:28.055Z,2.30
2022-11-02T07:48:28.027Z,3.00
2022-11-02T07:49:28.016Z,2.40
2022-11-02T07:50:28.016Z,2.00
2022-11-02T07:51:28.036Z,2.40
2022-11-02T07:52:27.996Z,2.20
2022-11-02T07:53:27.991Z,2.60
2022-11-02T07:54:27.982Z,2.40
2022-11-02T07:55:27.974Z,2.20
2022-11-02T07:56:27.966Z,2.00
2022-11-02T07:57:27.986Z,2.10
2022-11-02T07:58:27.969Z,1.90
2022-11-02T07:59:27.941Z,2.00
2022-11-02T08:00:27.931Z,2.10
2022-11-02T08:01:27.985Z,2.10
2022-11-02T08:02:28.029Z,2.30
2022-11-02T08:03:27.972Z,2.20
2022-11-02T08:04:27.903Z,2.00
2022-11-02T08:05:27.891Z,1.70
2022-11-02T08:06:27.884Z,1.60
2022-11-02T08:07:27.901Z,1.70
2022-11-02T08:08:27.871Z,2.00
2022-11-02T08:09:27.863Z,2.20
2022-11-02T08:10:27.851Z,2.10
2022-11-02T08:11:27.851Z,2.10
2022-11-02T08:12:27.957Z,1.80
2022-11-02T08:13:32.783Z,1.80
2022-11-02T08:14:28.825Z,1.60
2022-11-02T08:15:27.810Z,2.80
2022-11-02T08:16:27.806Z,2.30
2022-11-02T08:17:27.954Z,2.00
2022-11-02T08:18:27.788Z,2.00
2022-11-02T08:19:27.786Z,1.80
2022-11-02T08:20:27.775Z,1.70
2022-11-02T08:21:27.764Z,1.70
2022-11-02T08:22:27.957Z,1.70
2022-11-02T08:23:27.755Z,2.70
2022-11-02T08:24:27.745Z,2.40
2022-11-02T08:25:27.738Z,1.80
2022-11-02T08:26:27.730Z,2.20
2022-11-02T08:27:27.745Z,2.40
2022-11-02T08:28:27.712Z,1.70
2022-11-02T08:29:27.731Z,1.60
2022-11-02T08:30:27.695Z,1.70
2022-11-02T08:31:27.728Z,1.80
2022-11-02T08:32:27.708Z,1.70
2022-11-02T08:33:27.698Z,1.70
2022-11-02T08:34:27.665Z,2.30
2022-11-02T08:35:27.660Z,1.80
2022-11-02T08:36:27.647Z,1.70
2022-11-02T08:37:27.936Z,1.80
2022-11-02T08:38:27.634Z,1.80
2022-11-02T08:39:27.625Z,2.10
2022-11-02T08:40:27.618Z,2.10
2022-11-02T08:41:27.611Z,1.80
2022-11-02T08:42:27.623Z,1.40
2022-11-02T08:43:27.595Z,1.80
2022-11-02T08:44:27.581Z,1.60
2022-11-02T08:45:27.574Z,1.80
2022-11-02T08:46:27.566Z,1.60
2022-11-02T08:47:27.586Z,1.90
2022-11-02T08:48:27.554Z,2.20
2022-11-02T08:49:27.552Z,1.50
2022-11-02T08:50:27.531Z,1.50
2022-11-02T08:51:28.531Z,1.70
2022-11-02T08:52:27.544Z,1.90
2022-11-02T08:53:27.517Z,1.80
2022-11-02T08:54:27.507Z,2.00
2022-11-02T08:55:27.501Z,1.60
2022-11-02T08:56:27.493Z,1.90
2022-11-02T08:57:27.512Z,1.70
2022-11-02T08:58:27.473Z,1.70
2022-11-02T08:59:27.465Z,1.60
2022-11-02T09:00:27.463Z,1.80
2022-11-02T09:01:27.514Z,1.30
2022-11-02T09:02:27.506Z,1.80
2022-11-02T09:03:27.735Z,1.50
2022-11-02T09:04:27.429Z,1.60
2022-11-02T09:05:27.413Z,1.60
2022-11-02T09:06:27.409Z,1.80
2022-11-02T09:07:27.426Z,2.30
2022-11-02T09:08:27.669Z,1.50
2022-11-02T09:09:27.390Z,1.80
2022-11-02T09:10:27.381Z,1.80
2022-11-02T09:11:27.366Z,1.50
2022-11-02T09:12:27.389Z,1.80
2022-11-02T09:13:27.398Z,1.60
2022-11-02T09:14:27.384Z,1.60
2022-11-02T09:15:27.341Z,2.50
2022-11-02T09:16:27.329Z,1.50
2022-11-02T09:17:27.342Z,1.40
2022-11-02T09:18:27.329Z,2.30
2022-11-02T09:19:27.347Z,1.80
2022-11-02T09:20:27.303Z,1.90
2022-11-02T09:21:27.315Z,1.70
2022-11-02T09:22:27.307Z,1.60
2022-11-02T09:23:27.262Z,1.80
2022-11-02T09:24:28.267Z,1.60
2022-11-02T09:25:27.258Z,3.00
2022-11-02T09:26:27.248Z,1.80
2022-11-02T09:27:27.269Z,1.60
2022-11-02T09:28:27.244Z,2.20
2022-11-02T09:29:27.231Z,1.80
2022-11-02T09:30:27.216Z,1.50
2022-11-02T09:31:27.213Z,1.50
2022-11-02T09:32:27.230Z,1.70
2022-11-02T09:33:27.196Z,1.60
2022-11-02T09:34:27.191Z,2.00
2022-11-02T09:35:27.175Z,1.80
2022-11-02T09:36:27.169Z,2.20
2022-11-02T09:37:27.200Z,1.90
2022-11-02T09:38:27.157Z,1.70
2022-11-02T09:39:27.152Z,1.80
2022-11-02T09:40:27.140Z,1.80
2022-11-02T09:41:27.156Z,1.20
2022-11-02T09:42:27.149Z,1.60
2022-11-02T09:43:31.910Z,1.30
2022-11-02T09:44:29.109Z,2.00
2022-11-02T09:45:27.099Z,1.60
2022-11-02T09:46:27.094Z,1.60
2022-11-02T09:48:29.117Z,1.50
2022-11-02T09:49:28.064Z,1.30
2022-11-02T09:51:28.049Z,1.80
2022-11-02T09:52:27.041Z,1.70
2022-11-02T09:53:27.062Z,2.10
2022-11-02T09:54:27.029Z,1.60
2022-11-02T09:55:27.025Z,1.70
2022-11-02T09:56:27.010Z,1.90
2022-11-02T09:57:27.003Z,2.00
2022-11-02T09:58:27.022Z,1.40
2022-11-02T09:59:26.996Z,1.50
2022-11-02T10:00:26.984Z,1.90
2022-11-02T10:01:27.000Z,1.60
2022-11-02T10:02:27.006Z,1.60
2022-11-02T10:03:26.983Z,1.80
2022-11-02T10:04:26.953Z,2.20
2022-11-02T10:05:27.020Z,2.10
2022-11-02T10:06:26.932Z,1.60
2022-11-02T10:07:26.952Z,2.00
2022-11-02T10:08:26.922Z,1.80
2022-11-02T10:09:26.911Z,1.40
2022-11-02T10:10:26.905Z,1.70
2022-11-02T10:11:26.954Z,1.60
2022-11-02T10:12:27.952Z,1.60
2022-11-02T10:13:26.879Z,1.50
2022-11-02T10:14:26.875Z,1.60
2022-11-02T10:15:26.867Z,1.80
2022-11-02T10:16:26.856Z,1.20
2022-11-02T10:17:26.872Z,1.50
2022-11-02T10:18:26.846Z,1.60
2022-11-02T10:19:30.226Z,1.40
2022-11-02T10:20:26.832Z,2.00
2022-11-02T10:21:26.819Z,1.60
2022-11-02T10:22:26.836Z,1.60
2022-11-02T10:23:26.809Z,1.50
2022-11-02T10:24:26.795Z,2.10
2022-11-02T10:25:26.784Z,1.00
2022-11-02T10:26:26.781Z,1.40
2022-11-02T10:27:26.791Z,1.40
2022-11-02T10:28:26.835Z,1.30
2022-11-02T10:29:26.752Z,1.50
2022-11-02T10:30:26.746Z,1.50
2022-11-02T10:31:26.740Z,1.50
2022-11-02T10:32:26.766Z,2.40
2022-11-02T10:33:26.729Z,1.60
2022-11-02T10:34:26.711Z,1.50
2022-11-02T10:35:37.112Z,1.60
2022-11-02T10:36:28.698Z,1.50
2022-11-02T10:37:26.729Z,1.50
2022-11-02T10:38:26.683Z,1.40
2022-11-02T10:39:26.676Z,1.20
2022-11-02T10:40:26.664Z,1.40
2022-11-02T10:41:26.659Z,1.90
2022-11-02T10:42:26.648Z,1.80
2022-11-02T10:43:26.666Z,1.30
2022-11-02T10:44:26.633Z,1.60
2022-11-02T10:45:26.630Z,1.50
2022-11-02T10:46:26.620Z,1.30
2022-11-02T10:47:26.610Z,1.30
2022-11-02T10:48:26.632Z,1.70
2022-11-02T10:49:26.602Z,1.50
2022-11-02T10:50:26.592Z,1.40
2022-11-02T10:51:26.580Z,1.30
2022-11-02T10:52:26.575Z,1.40
2022-11-02T10:53:40.680Z,1.60
2022-11-02T10:54:33.168Z,1.50
2022-11-02T10:55:27.545Z,1.50
2022-11-02T10:56:26.536Z,1.50
2022-11-02T10:57:26.532Z,1.50
2022-11-02T10:58:26.550Z,1.30
2022-11-02T10:59:26.526Z,1.60
2022-11-02T11:00:26.579Z,1.50
2022-11-02T11:01:26.615Z,1.30
2022-11-02T11:02:26.498Z,1.40
2022-11-02T11:03:26.512Z,1.50
2022-11-02T11:04:26.502Z,1.30
2022-11-02T11:05:26.464Z,1.60
2022-11-02T11:06:27.463Z,1.60
2022-11-02T11:07:26.481Z,1.80
2022-11-02T11:08:26.446Z,1.60
2022-11-02T11:09:26.435Z,1.20
2022-11-02T11:10:26.433Z,1.50
2022-11-02T11:11:26.426Z,1.60
2022-11-02T11:12:26.441Z,1.40
2022-11-02T11:16:28.376Z,1.70
2022-11-02T11:19:43.626Z,1.40
2022-11-02T11:20:28.355Z,1.50
2022-11-02T11:21:26.346Z,1.60
2022-11-02T11:22:26.363Z,1.50
2022-11-02T11:23:26.349Z,2.00
2022-11-02T11:24:26.359Z,1.30
2022-11-02T11:25:28.281Z,1.60
2022-11-02T11:26:27.314Z,1.20
2022-11-02T11:27:26.327Z,1.80
2022-11-02T11:28:26.309Z,1.80
2022-11-02T11:29:26.296Z,1.20
2022-11-02T11:31:28.275Z,2.20
2022-11-02T11:32:30.261Z,1.10
2022-11-02T11:33:27.254Z,1.50
2022-11-02T11:34:26.263Z,1.10
2022-11-02T11:35:26.260Z,1.50
2022-11-02T11:37:27.256Z,1.70
2022-11-02T11:38:26.237Z,1.30
2022-11-02T11:39:26.210Z,1.20
2022-11-02T11:40:26.205Z,1.20
2022-11-02T11:41:26.195Z,1.70
2022-11-02T11:42:26.221Z,2.00
2022-11-02T11:43:26.184Z,1.00
2022-11-02T11:44:26.170Z,1.40
2022-11-02T11:45:26.170Z,1.20
2022-11-02T11:46:26.153Z,2.00
2022-11-02T11:47:26.159Z,1.60
2022-11-02T11:48:26.173Z,1.30
2022-11-02T11:49:41.589Z,1.40
2022-11-02T11:50:28.472Z,1.40
2022-11-02T11:51:26.458Z,1.20
2022-11-02T11:52:31.190Z,1.10
2022-11-02T11:53:28.127Z,1.20
2022-11-02T11:54:26.097Z,1.40
2022-11-02T11:55:26.087Z,1.10
2022-11-02T11:56:26.075Z,1.30
2022-11-02T11:57:26.138Z,1.30
2022-11-02T11:58:26.079Z,1.30
2022-11-02T11:59:26.057Z,1.40
2022-11-02T12:00:26.039Z,1.10
2022-11-02T12:01:26.081Z,1.10
2022-11-02T12:02:26.099Z,1.30
2022-11-02T12:03:26.108Z,1.30
2022-11-02T12:04:26.014Z,1.30
2022-11-02T12:05:26.004Z,1.20
2022-11-02T12:06:25.996Z,1.40
2022-11-02T12:07:25.995Z,0.90
2022-11-02T12:08:26.008Z,1.40
2022-11-02T12:09:25.981Z,1.30
2022-11-02T12:10:25.974Z,1.10
2022-11-02T12:11:25.959Z,1.10
2022-11-02T12:12:25.956Z,1.10
2022-11-02T12:13:25.977Z,1.40
2022-11-02T12:14:25.936Z,1.10
2022-11-02T12:15:25.934Z,1.30
2022-11-02T12:16:25.924Z,1.50
2022-11-02T12:17:25.920Z,1.50
2022-11-02T12:18:25.937Z,1.50
2022-11-02T12:19:27.377Z,1.20
2022-11-02T12:20:25.892Z,1.10
2022-11-02T12:21:25.893Z,1.20
2022-11-02T12:22:25.873Z,0.90
2022-11-02T12:23:25.892Z,1.40
2022-11-02T12:24:25.860Z,1.20
2022-11-02T12:25:25.855Z,1.10
2022-11-02T12:26:25.843Z,1.40
2022-11-02T12:27:25.838Z,1.10
2022-11-02T12:28:25.855Z,1.20
2022-11-02T12:29:25.823Z,1.20
2022-11-02T12:30:25.821Z,1.20
2022-11-02T12:31:25.802Z,1.10
2022-11-02T12:32:25.806Z,1.10
2022-11-02T12:33:25.823Z,1.30
2022-11-02T12:34:25.782Z,1.30
2022-11-02T12:35:30.172Z,1.40
2022-11-02T12:36:27.774Z,1.30
2022-11-02T12:37:39.980Z,1.10
2022-11-02T12:38:27.777Z,1.40
2022-11-02T12:39:25.759Z,1.40
2022-11-02T12:41:25.731Z,1.50
2022-11-02T12:42:26.346Z,1.10
2022-11-02T12:43:25.753Z,1.40
2022-11-02T12:44:25.713Z,1.10
2022-11-02T12:45:25.702Z,1.40
2022-11-02T12:46:25.703Z,1.60
2022-11-02T12:47:25.684Z,1.50
2022-11-02T12:48:25.715Z,1.10
2022-11-02T12:49:25.667Z,1.40
2022-11-02T12:50:25.653Z,1.30
2022-11-02T12:51:25.656Z,1.00
2022-11-02T12:52:25.644Z,1.70
2022-11-02T12:53:25.656Z,1.30
2022-11-02T12:54:25.633Z,1.10
2022-11-02T12:55:25.619Z,1.50
2022-11-02T12:56:25.617Z,1.20
2022-11-02T12:57:25.606Z,1.20
2022-11-02T12:58:25.633Z,1.30
2022-11-02T12:59:25.594Z,1.40
2022-11-02T13:00:25.587Z,1.80
2022-11-02T13:01:25.776Z,1.20
2022-11-02T13:02:25.589Z,1.20
2022-11-02T13:03:25.592Z,1.50
2022-11-02T13:04:29.289Z,1.10
2022-11-02T13:05:25.600Z,1.50
2022-11-02T13:06:25.534Z,1.30
2022-11-02T13:07:25.522Z,1.30
2022-11-02T13:08:25.542Z,1.50
2022-11-02T13:09:26.229Z,1.40
2022-11-02T13:10:25.508Z,1.20
2022-11-02T13:11:25.494Z,1.60
2022-11-02T13:12:25.483Z,1.10
2022-11-02T13:13:25.497Z,0.90
2022-11-02T13:14:25.469Z,1.20
2022-11-02T13:15:25.457Z,1.50
2022-11-02T13:16:25.466Z,1.30
2022-11-02T13:17:25.441Z,1.00
2022-11-02T13:18:25.468Z,0.90
2022-11-02T13:19:25.428Z,1.20
2022-11-02T13:20:25.428Z,1.10
2022-11-02T13:21:25.421Z,1.00
2022-11-02T13:22:25.408Z,1.50
2022-11-02T13:23:25.507Z,1.30
2022-11-02T13:24:28.100Z,1.10
2022-11-02T13:25:26.384Z,1.20
2022-11-02T13:26:25.376Z,1.70
2022-11-02T13:27:37.252Z,1.10
2022-11-02T13:28:27.386Z,1.10
2022-11-02T13:29:25.336Z,1.40
2022-11-02T13:30:26.343Z,1.40
2022-11-02T13:31:25.335Z,1.40